createdAt,value
2022-10-18T00:08:22.000Z,7.90
2022-10-18T00:18:23.000Z,11.20
2022-10-18T00:28:24.000Z,12.60
2022-10-18T00:38:25.000Z,12.90
2022-10-18T00:48:26.000Z,13.00
2022-10-18T00:58:27.000Z,12.00
2022-10-18T01:18:29.000Z,11.60
2022-10-18T01:28:30.000Z,10.50
2022-10-18T01:38:31.000Z,9.60
2022-10-18T01:48:32.000Z,9.40
2022-10-18T01:58:32.000Z,11.20
2022-10-18T02:08:33.000Z,11.30
2022-10-18T02:18:34.000Z,11.80
2022-10-18T02:28:35.000Z,10.30
2022-10-18T02:48:37.000Z,11.10
2022-10-18T02:58:38.000Z,10.40
2022-10-18T03:08:39.000Z,10.90
2022-10-18T03:18:40.000Z,11.40
2022-10-18T03:28:40.000Z,13.10
2022-10-18T03:38:41.000Z,12.40
2022-10-18T03:48:42.000Z,12.50
2022-10-18T03:58:43.000Z,11.10
2022-10-18T04:18:45.000Z,10.70
2022-10-18T04:28:45.000Z,11.50
2022-10-18T04:38:46.000Z,12.80
2022-10-18T04:48:47.000Z,12.00
2022-10-18T04:58:48.000Z,12.90
2022-10-18T05:08:48.000Z,13.30
2022-10-18T05:18:49.000Z,12.70
2022-10-18T06:41:44.000Z,34.00
2022-10-18T06:41:44.000Z,35.10
2022-10-18T08:09:55.000Z,14.30
2022-10-18T08:09:55.000Z,12.20
2022-10-18T08:09:55.000Z,12.20
2022-10-18T08:19:55.000Z,13.70
2022-10-18T08:29:55.000Z,12.70
2022-10-18T08:39:55.000Z,13.30
2022-10-18T08:49:55.000Z,12.70
2022-10-18T08:59:55.000Z,14.60
2022-10-18T09:35:12.000Z,11.10
2022-10-18T09:35:12.000Z,13.10
2022-10-18T09:45:12.000Z,13.40
2022-10-18T09:55:12.000Z,13.00
2022-10-18T10:05:12.000Z,14.40
2022-10-18T10:15:12.000Z,15.00
2022-10-18T10:45:47.000Z,13.10
2022-10-18T10:45:47.000Z,13.20
2022-10-18T10:55:47.000Z,9.90
2022-10-18T11:05:47.000Z,9.60
2022-10-18T11:15:46.000Z,7.70
2022-10-18T11:25:46.000Z,6.70
2022-10-18T11:35:46.000Z,7.40
2022-10-18T11:45:46.000Z,13.30
2022-10-18T11:55:46.000Z,12.00
2022-10-18T12:15:45.000Z,11.50
2022-10-18T12:25:45.000Z,10.60
2022-10-18T12:35:45.000Z,12.00
2022-10-18T12:45:45.000Z,11.50
2022-10-18T12:55:45.000Z,15.20
2022-10-18T13:05:45.000Z,14.10
2022-10-18T13:15:45.000Z,13.50
2022-10-18T13:25:44.000Z,10.60
2022-10-18T13:45:44.000Z,7.80
2022-10-18T13:55:44.000Z,10.50
2022-10-18T15:50:38.000Z,23.40
2022-10-18T16:05:56.000Z,23.60
2022-10-18T16:05:56.000Z,22.60
2022-10-18T16:16:03.000Z,24.10
2022-10-18T16:25:56.000Z,23.60
2022-10-18T17:17:06.000Z,13.90
2022-10-18T18:40:17.000Z,44.30
2022-10-18T18:40:17.000Z,42.50
2022-10-18T19:47:18.000Z,42.30
2022-10-18T19:47:18.000Z,36.70
2022-10-18T19:57:18.000Z,31.40
2022-10-18T20:07:18.000Z,42.90
2022-10-18T20:17:18.000Z,38.30
2022-10-18T20:27:18.000Z,24.30
2022-10-18T20:37:18.000Z,28.40
2022-10-18T20:47:18.000Z,29.90
2022-10-18T21:27:37.000Z,25.40
2022-10-18T21:27:37.000Z,33.10
2022-10-18T21:37:37.000Z,30.70
2022-10-18T21:47:37.000Z,32.60
2022-10-18T21:57:37.000Z,31.30
2022-10-18T22:07:37.000Z,27.00
2022-10-18T22:17:37.000Z,29.40
2022-10-18T22:27:37.000Z,24.30
2022-10-18T22:37:37.000Z,22.70
2022-10-18T22:57:37.000Z,20.40
2022-10-18T23:07:37.000Z,18.70
2022-10-18T23:17:37.000Z,20.60
2022-10-18T23:27:38.000Z,14.50
2022-10-18T23:37:38.000Z,16.90
2022-10-18T23:47:38.000Z,15.00
2022-10-18T23:57:38.000Z,16.60
